sensor_id;sensor_type;location;lat;lon;timestamp;pressure;altitude;pressure_sealevel;temperature;humidity
15604;BME280;7902;49.042;9.092;2023-01-25T00:02:04;100792.44;;;8.20;59.36
15604;BME280;7902;49.042;9.092;2023-01-25T00:04:31;100779.97;;;8.28;59.29
15604;BME280;7902;49.042;9.092;2023-01-25T00:06:57;100778.34;;;8.24;59.46
15604;BME280;7902;49.042;9.092;2023-01-25T00:09:23;100780.59;;;8.35;58.83
15604;BME280;7902;49.042;9.092;2023-01-25T00:11:50;100781.59;;;8.32;58.96
15604;BME280;7902;49.042;9.092;2023-01-25T00:14:18;100783.22;;;8.35;59.03
15604;BME280;7902;49.042;9.092;2023-01-25T00:16:44;100783.69;;;8.21;59.30
15604;BME280;7902;49.042;9.092;2023-01-25T00:19:10;100776.16;;;8.12;59.65
15604;BME280;7902;49.042;9.092;2023-01-25T00:21:37;100767.88;;;8.24;59.23
15604;BME280;7902;49.042;9.092;2023-01-25T00:24:03;100777.50;;;8.24;59.24
15604;BME280;7902;49.042;9.092;2023-01-25T00:26:33;100780.78;;;8.30;59.24
15604;BME280;7902;49.042;9.092;2023-01-25T00:29:00;100775.53;;;8.30;59.13
15604;BME280;7902;49.042;9.092;2023-01-25T00:34:49;100759.22;;;8.22;59.12
15604;BME280;7902;49.042;9.092;2023-01-25T00:37:27;100762.44;;;8.30;59.11
15604;BME280;7902;49.042;9.092;2023-01-25T00:39:53;100752.16;;;8.24;59.44
15604;BME280;7902;49.042;9.092;2023-01-25T00:42:19;100751.84;;;8.33;59.16
15604;BME280;7902;49.042;9.092;2023-01-25T00:44:46;100747.25;;;8.15;59.23
15604;BME280;7902;49.042;9.092;2023-01-25T00:47:13;100740.19;;;8.19;59.27
15604;BME280;7902;49.042;9.092;2023-01-25T00:49:39;100747.00;;;8.23;59.38
15604;BME280;7902;49.042;9.092;2023-01-25T00:52:08;100739.66;;;8.09;59.64
15604;BME280;7902;49.042;9.092;2023-01-25T00:54:34;100736.41;;;8.03;59.32
15604;BME280;7902;49.042;9.092;2023-01-25T00:57:00;100741.78;;;7.98;60.10
15604;BME280;7902;49.042;9.092;2023-01-25T00:59:26;100752.06;;;8.04;59.77
15604;BME280;7902;49.042;9.092;2023-01-25T01:01:52;100756.47;;;8.02;60.00
15604;BME280;7902;49.042;9.092;2023-01-25T01:04:19;100755.63;;;8.02;59.74
15604;BME280;7902;49.042;9.092;2023-01-25T01:06:45;100744.22;;;8.04;59.57
15604;BME280;7902;49.042;9.092;2023-01-25T01:09:14;100749.78;;;7.95;60.13
15604;BME280;7902;49.042;9.092;2023-01-25T01:11:40;100746.91;;;8.01;59.99
15604;BME280;7902;49.042;9.092;2023-01-25T01:17:29;100731.53;;;8.17;59.52
15604;BME280;7902;49.042;9.092;2023-01-25T01:19:54;100728.84;;;8.18;59.50
15604;BME280;7902;49.042;9.092;2023-01-25T01:22:20;100729.53;;;8.23;59.07
15604;BME280;7902;49.042;9.092;2023-01-25T01:24:47;100738.25;;;8.24;59.43
15604;BME280;7902;49.042;9.092;2023-01-25T01:27:14;100734.78;;;8.23;59.51
15604;BME280;7902;49.042;9.092;2023-01-25T01:29:39;100733.78;;;8.26;59.33
15604;BME280;7902;49.042;9.092;2023-01-25T01:32:05;100738.50;;;8.16;59.26
15604;BME280;7902;49.042;9.092;2023-01-25T01:34:31;100736.75;;;8.17;59.29
15604;BME280;7902;49.042;9.092;2023-01-25T01:36:57;100741.69;;;8.24;59.34
15604;BME280;7902;49.042;9.092;2023-01-25T01:39:23;100746.03;;;8.25;58.80
15604;BME280;7902;49.042;9.092;2023-01-25T01:41:49;100744.38;;;8.23;59.31
15604;BME280;7902;49.042;9.092;2023-01-25T01:44:18;100742.97;;;8.14;59.58
15604;BME280;7902;49.042;9.092;2023-01-25T01:46:51;100753.28;;;8.19;59.42
15604;BME280;7902;49.042;9.092;2023-01-25T01:49:22;100755.94;;;8.17;59.89
15604;BME280;7902;49.042;9.092;2023-01-25T01:52:06;100748.06;;;8.17;59.71
15604;BME280;7902;49.042;9.092;2023-01-25T01:54:39;100747.50;;;8.09;59.62
15604;BME280;7902;49.042;9.092;2023-01-25T02:00:34;100749.16;;;8.12;59.57
15604;BME280;7902;49.042;9.092;2023-01-25T02:03:02;100740.28;;;8.16;59.66
15604;BME280;7902;49.042;9.092;2023-01-25T02:05:36;100748.84;;;8.19;59.48
15604;BME280;7902;49.042;9.092;2023-01-25T02:08:06;100741.13;;;8.16;59.56
15604;BME280;7902;49.042;9.092;2023-01-25T02:10:35;100743.63;;;8.19;59.50
15604;BME280;7902;49.042;9.092;2023-01-25T02:13:01;100735.00;;;8.17;59.88
15604;BME280;7902;49.042;9.092;2023-01-25T02:15:32;100729.28;;;8.06;59.81
15604;BME280;7902;49.042;9.092;2023-01-25T02:18:01;100737.03;;;8.09;60.12
15604;BME280;7902;49.042;9.092;2023-01-25T02:20:35;100733.41;;;8.13;59.84
15604;BME280;7902;49.042;9.092;2023-01-25T02:26:00;100726.63;;;8.08;60.36
15604;BME280;7902;49.042;9.092;2023-01-25T02:28:35;100729.19;;;8.09;60.11
15604;BME280;7902;49.042;9.092;2023-01-25T02:31:03;100730.19;;;8.05;60.15
15604;BME280;7902;49.042;9.092;2023-01-25T02:33:29;100728.34;;;8.09;60.16
15604;BME280;7902;49.042;9.092;2023-01-25T02:36:14;100723.59;;;7.95;60.45
15604;BME280;7902;49.042;9.092;2023-01-25T02:38:48;100720.31;;;7.90;60.70
15604;BME280;7902;49.042;9.092;2023-01-25T02:41:20;100713.47;;;7.86;60.65
15604;BME280;7902;49.042;9.092;2023-01-25T02:43:48;100719.44;;;7.89;60.73
15604;BME280;7902;49.042;9.092;2023-01-25T02:46:21;100710.53;;;7.95;60.61
15604;BME280;7902;49.042;9.092;2023-01-25T02:48:48;100717.09;;;7.82;61.03
15604;BME280;7902;49.042;9.092;2023-01-25T02:51:14;100703.59;;;7.94;60.70
15604;BME280;7902;49.042;9.092;2023-01-25T02:53:40;100703.91;;;7.85;61.06
15604;BME280;7902;49.042;9.092;2023-01-25T02:56:06;100703.06;;;7.84;60.89
15604;BME280;7902;49.042;9.092;2023-01-25T02:58:32;100700.97;;;7.94;60.78
15604;BME280;7902;49.042;9.092;2023-01-25T03:00:58;100704.69;;;7.87;60.89
15604;BME280;7902;49.042;9.092;2023-01-25T03:03:24;100702.91;;;7.89;60.83
15604;BME280;7902;49.042;9.092;2023-01-25T03:05:50;100700.50;;;7.83;61.14
15604;BME280;7902;49.042;9.092;2023-01-25T03:08:16;100700.28;;;7.89;60.94
15604;BME280;7902;49.042;9.092;2023-01-25T03:10:42;100692.44;;;7.89;60.94
15604;BME280;7902;49.042;9.092;2023-01-25T03:13:08;100698.59;;;7.86;60.89
15604;BME280;7902;49.042;9.092;2023-01-25T03:15:34;100697.66;;;7.89;60.75
15604;BME280;7902;49.042;9.092;2023-01-25T03:17:59;100701.31;;;7.85;61.16
15604;BME280;7902;49.042;9.092;2023-01-25T03:20:25;100691.38;;;7.94;60.63
15604;BME280;7902;49.042;9.092;2023-01-25T03:22:51;100693.13;;;7.94;60.82
15604;BME280;7902;49.042;9.092;2023-01-25T03:25:17;100691.53;;;7.90;61.25
15604;BME280;7902;49.042;9.092;2023-01-25T03:27:43;100690.03;;;7.83;61.08
15604;BME280;7902;49.042;9.092;2023-01-25T03:30:10;100689.13;;;7.84;61.44
15604;BME280;7902;49.042;9.092;2023-01-25T03:32:36;100684.28;;;7.97;60.91
15604;BME280;7902;49.042;9.092;2023-01-25T03:35:03;100676.75;;;7.89;61.05
15604;BME280;7902;49.042;9.092;2023-01-25T03:37:29;100684.47;;;7.92;61.21
15604;BME280;7902;49.042;9.092;2023-01-25T03:39:56;100681.31;;;7.82;61.23
15604;BME280;7902;49.042;9.092;2023-01-25T03:42:23;100683.44;;;7.96;60.92
15604;BME280;7902;49.042;9.092;2023-01-25T03:44:49;100680.13;;;7.91;60.93
15604;BME280;7902;49.042;9.092;2023-01-25T03:47:15;100677.84;;;7.82;61.17
15604;BME280;7902;49.042;9.092;2023-01-25T03:49:41;100675.84;;;7.90;61.50
15604;BME280;7902;49.042;9.092;2023-01-25T03:52:07;100675.34;;;7.79;61.34
15604;BME280;7902;49.042;9.092;2023-01-25T03:54:33;100676.00;;;7.85;61.38
15604;BME280;7902;49.042;9.092;2023-01-25T03:56:59;100677.69;;;7.86;61.15
15604;BME280;7902;49.042;9.092;2023-01-25T03:59:25;100682.09;;;7.86;61.12
15604;BME280;7902;49.042;9.092;2023-01-25T04:01:51;100681.31;;;7.82;61.38
15604;BME280;7902;49.042;9.092;2023-01-25T04:04:17;100681.97;;;7.89;60.99
15604;BME280;7902;49.042;9.092;2023-01-25T04:06:43;100675.50;;;7.99;60.81
15604;BME280;7902;49.042;9.092;2023-01-25T04:09:09;100671.50;;;7.89;60.66
15604;BME280;7902;49.042;9.092;2023-01-25T04:11:35;100680.38;;;7.85;61.38
15604;BME280;7902;49.042;9.092;2023-01-25T04:14:01;100666.50;;;7.83;61.51
15604;BME280;7902;49.042;9.092;2023-01-25T04:16:27;100664.69;;;7.85;60.87
15604;BME280;7902;49.042;9.092;2023-01-25T04:18:55;100667.34;;;7.83;61.22
15604;BME280;7902;49.042;9.092;2023-01-25T04:21:20;100664.56;;;7.88;60.77
15604;BME280;7902;49.042;9.092;2023-01-25T04:23:46;100665.47;;;7.87;61.10
15604;BME280;7902;49.042;9.092;2023-01-25T04:26:12;100662.75;;;7.90;60.69
15604;BME280;7902;49.042;9.092;2023-01-25T04:28:39;100658.25;;;7.93;60.75
15604;BME280;7902;49.042;9.092;2023-01-25T04:31:05;100664.53;;;7.89;60.91
15604;BME280;7902;49.042;9.092;2023-01-25T04:33:32;100659.78;;;7.76;60.74
15604;BME280;7902;49.042;9.092;2023-01-25T04:35:58;100658.72;;;7.81;61.03
15604;BME280;7902;49.042;9.092;2023-01-25T04:38:25;100658.72;;;7.81;60.88
15604;BME280;7902;49.042;9.092;2023-01-25T04:40:51;100661.56;;;7.99;60.43
15604;BME280;7902;49.042;9.092;2023-01-25T04:43:19;100659.91;;;7.96;60.44
15604;BME280;7902;49.042;9.092;2023-01-25T04:45:45;100663.63;;;7.90;60.30
15604;BME280;7902;49.042;9.092;2023-01-25T04:48:11;100651.78;;;7.80;60.92
15604;BME280;7902;49.042;9.092;2023-01-25T04:50:39;100655.66;;;7.93;60.48
15604;BME280;7902;49.042;9.092;2023-01-25T04:53:06;100658.59;;;7.84;60.47
15604;BME280;7902;49.042;9.092;2023-01-25T04:55:32;100662.28;;;8.02;60.07
15604;BME280;7902;49.042;9.092;2023-01-25T04:58:02;100656.56;;;7.92;60.69
15604;BME280;7902;49.042;9.092;2023-01-25T05:00:28;100652.72;;;7.78;60.38
15604;BME280;7902;49.042;9.092;2023-01-25T05:02:54;100651.28;;;7.94;60.23
15604;BME280;7902;49.042;9.092;2023-01-25T05:05:20;100655.09;;;7.85;60.62
15604;BME280;7902;49.042;9.092;2023-01-25T05:07:46;100647.75;;;7.95;60.08
15604;BME280;7902;49.042;9.092;2023-01-25T05:10:12;100645.53;;;7.84;60.46
15604;BME280;7902;49.042;9.092;2023-01-25T05:12:38;100650.59;;;7.89;60.40
15604;BME280;7902;49.042;9.092;2023-01-25T05:15:05;100651.09;;;7.99;60.04
15604;BME280;7902;49.042;9.092;2023-01-25T05:17:31;100651.84;;;8.02;60.10
15604;BME280;7902;49.042;9.092;2023-01-25T05:19:57;100651.28;;;7.94;59.97
15604;BME280;7902;49.042;9.092;2023-01-25T05:22:23;100650.94;;;8.03;60.17
15604;BME280;7902;49.042;9.092;2023-01-25T05:24:49;100656.59;;;7.91;60.51
15604;BME280;7902;49.042;9.092;2023-01-25T05:27:17;100655.69;;;7.92;59.97
15604;BME280;7902;49.042;9.092;2023-01-25T05:29:44;100648.88;;;7.88;60.19
15604;BME280;7902;49.042;9.092;2023-01-25T05:34:38;100652.03;;;7.73;60.80
15604;BME280;7902;49.042;9.092;2023-01-25T05:37:06;100644.78;;;7.81;60.53
15604;BME280;7902;49.042;9.092;2023-01-25T05:39:32;100647.63;;;7.75;60.73
15604;BME280;7902;49.042;9.092;2023-01-25T05:41:58;100649.53;;;7.70;60.73
15604;BME280;7902;49.042;9.092;2023-01-25T05:44:24;100653.25;;;7.87;60.38
15604;BME280;7902;49.042;9.092;2023-01-25T05:46:50;100652.34;;;7.88;60.23
15604;BME280;7902;49.042;9.092;2023-01-25T05:49:17;100637.50;;;7.66;60.55
15604;BME280;7902;49.042;9.092;2023-01-25T05:51:43;100632.78;;;7.75;60.40
15604;BME280;7902;49.042;9.092;2023-01-25T05:54:14;100638.34;;;7.66;60.75
15604;BME280;7902;49.042;9.092;2023-01-25T05:56:42;100624.22;;;7.72;60.71
15604;BME280;7902;49.042;9.092;2023-01-25T05:59:09;100623.28;;;7.73;60.67
15604;BME280;7902;49.042;9.092;2023-01-25T06:01:36;100619.75;;;7.74;60.99
15604;BME280;7902;49.042;9.092;2023-01-25T06:04:02;100624.25;;;7.70;60.50
15604;BME280;7902;49.042;9.092;2023-01-25T06:06:28;100620.66;;;7.73;60.61
15604;BME280;7902;49.042;9.092;2023-01-25T06:08:54;100613.84;;;7.69;60.64
15604;BME280;7902;49.042;9.092;2023-01-25T06:11:22;100611.47;;;7.63;60.87
15604;BME280;7902;49.042;9.092;2023-01-25T06:13:49;100617.34;;;7.68;60.52
15604;BME280;7902;49.042;9.092;2023-01-25T06:16:15;100614.13;;;7.61;61.00
15604;BME280;7902;49.042;9.092;2023-01-25T06:18:42;100618.16;;;7.70;60.81
15604;BME280;7902;49.042;9.092;2023-01-25T06:21:08;100621.81;;;7.66;61.08
15604;BME280;7902;49.042;9.092;2023-01-25T06:23:34;100619.03;;;7.70;60.62
15604;BME280;7902;49.042;9.092;2023-01-25T06:26:02;100619.06;;;7.69;60.65
15604;BME280;7902;49.042;9.092;2023-01-25T06:28:29;100610.00;;;7.79;60.30
15604;BME280;7902;49.042;9.092;2023-01-25T06:31:02;100610.28;;;7.71;60.44
15604;BME280;7902;49.042;9.092;2023-01-25T06:33:28;100602.88;;;7.59;61.17
15604;BME280;7902;49.042;9.092;2023-01-25T06:35:58;100606.97;;;7.66;60.53
15604;BME280;7902;49.042;9.092;2023-01-25T06:38:24;100602.78;;;7.62;60.65
15604;BME280;7902;49.042;9.092;2023-01-25T06:40:50;100602.78;;;7.62;60.53
15604;BME280;7902;49.042;9.092;2023-01-25T06:43:16;100608.63;;;7.69;60.94
15604;BME280;7902;49.042;9.092;2023-01-25T06:45:42;100600.22;;;7.84;60.37
15604;BME280;7902;49.042;9.092;2023-01-25T06:48:08;100603.50;;;7.66;60.61
15604;BME280;7902;49.042;9.092;2023-01-25T06:50:34;100601.50;;;7.72;60.24
15604;BME280;7902;49.042;9.092;2023-01-25T06:52:59;100590.31;;;7.69;60.56
15604;BME280;7902;49.042;9.092;2023-01-25T06:55:25;100595.50;;;7.70;60.67
15604;BME280;7902;49.042;9.092;2023-01-25T06:57:51;100604.25;;;7.69;60.72
15604;BME280;7902;49.042;9.092;2023-01-25T07:00:17;100603.13;;;7.76;60.46
15604;BME280;7902;49.042;9.092;2023-01-25T07:02:43;100598.84;;;7.74;60.35
15604;BME280;7902;49.042;9.092;2023-01-25T07:05:09;100599.69;;;7.74;60.81
15604;BME280;7902;49.042;9.092;2023-01-25T07:07:35;100599.06;;;7.68;60.25
15604;BME280;7902;49.042;9.092;2023-01-25T07:10:01;100603.84;;;7.80;60.68
15604;BME280;7902;49.042;9.092;2023-01-25T07:12:28;100603.84;;;7.80;60.68
15604;BME280;7902;49.042;9.092;2023-01-25T07:14:55;100604.03;;;7.75;61.02
15604;BME280;7902;49.042;9.092;2023-01-25T07:17:20;100600.00;;;7.67;60.80
15604;BME280;7902;49.042;9.092;2023-01-25T07:19:46;100600.09;;;7.64;60.82
15604;BME280;7902;49.042;9.092;2023-01-25T07:22:12;100591.91;;;7.73;60.38
15604;BME280;7902;49.042;9.092;2023-01-25T07:24:38;100590.09;;;7.75;60.46
15604;BME280;7902;49.042;9.092;2023-01-25T07:27:04;100585.94;;;7.69;60.60
15604;BME280;7902;49.042;9.092;2023-01-25T07:29:30;100585.25;;;7.87;60.69
15604;BME280;7902;49.042;9.092;2023-01-25T07:31:56;100580.53;;;7.74;60.96
15604;BME280;7902;49.042;9.092;2023-01-25T07:34:22;100587.13;;;7.61;60.38
15604;BME280;7902;49.042;9.092;2023-01-25T07:36:48;100579.94;;;7.67;60.67
15604;BME280;7902;49.042;9.092;2023-01-25T07:39:13;100580.44;;;7.77;60.34
15604;BME280;7902;49.042;9.092;2023-01-25T07:41:39;100575.09;;;7.80;60.06
15604;BME280;7902;49.042;9.092;2023-01-25T07:44:05;100581.00;;;7.85;59.87
15604;BME280;7902;49.042;9.092;2023-01-25T07:46:31;100568.47;;;7.93;59.92
15604;BME280;7902;49.042;9.092;2023-01-25T07:48:57;100584.16;;;7.93;59.70
15604;BME280;7902;49.042;9.092;2023-01-25T07:51:23;100585.53;;;7.80;60.33
15604;BME280;7902;49.042;9.092;2023-01-25T07:53:53;100578.44;;;7.83;59.93
15604;BME280;7902;49.042;9.092;2023-01-25T07:56:24;100577.13;;;7.95;59.60
15604;BME280;7902;49.042;9.092;2023-01-25T07:58:54;100574.38;;;7.98;59.57
15604;BME280;7902;49.042;9.092;2023-01-25T08:01:23;100581.44;;;7.96;59.76
15604;BME280;7902;49.042;9.092;2023-01-25T08:03:50;100585.66;;;8.00;59.29
15604;BME280;7902;49.042;9.092;2023-01-25T08:06:16;100589.19;;;7.99;59.47
15604;BME280;7902;49.042;9.092;2023-01-25T08:08:47;100590.59;;;7.84;59.61
15604;BME280;7902;49.042;9.092;2023-01-25T08:11:19;100595.31;;;7.98;59.92
15604;BME280;7902;49.042;9.092;2023-01-25T08:13:46;100594.16;;;8.05;59.33
15604;BME280;7902;49.042;9.092;2023-01-25T08:16:13;100594.41;;;7.99;59.39
15604;BME280;7902;49.042;9.092;2023-01-25T08:18:39;100595.09;;;8.04;59.39
15604;BME280;7902;49.042;9.092;2023-01-25T08:21:05;100591.50;;;8.07;59.37
15604;BME280;7902;49.042;9.092;2023-01-25T08:23:31;100596.53;;;8.11;58.90
15604;BME280;7902;49.042;9.092;2023-01-25T08:26:11;100581.66;;;8.13;58.76
15604;BME280;7902;49.042;9.092;2023-01-25T08:28:37;100586.88;;;8.13;58.93
15604;BME280;7902;49.042;9.092;2023-01-25T08:31:20;100585.13;;;8.14;58.65
15604;BME280;7902;49.042;9.092;2023-01-25T08:33:47;100585.31;;;8.09;59.32
15604;BME280;7902;49.042;9.092;2023-01-25T08:36:14;100580.97;;;8.08;59.13
15604;BME280;7902;49.042;9.092;2023-01-25T08:38:41;100572.41;;;8.05;59.12
15604;BME280;7902;49.042;9.092;2023-01-25T08:41:09;100572.41;;;8.05;59.18
15604;BME280;7902;49.042;9.092;2023-01-25T08:43:36;100570.38;;;8.11;59.20
15604;BME280;7902;49.042;9.092;2023-01-25T08:46:03;100569.47;;;8.12;58.87
15604;BME280;7902;49.042;9.092;2023-01-25T08:48:29;100566.91;;;8.11;58.96
15604;BME280;7902;49.042;9.092;2023-01-25T08:50:55;100557.78;;;7.99;59.62
15604;BME280;7902;49.042;9.092;2023-01-25T08:53:21;100568.75;;;8.09;59.29
15604;BME280;7902;49.042;9.092;2023-01-25T08:55:47;100572.03;;;8.14;59.43
15604;BME280;7902;49.042;9.092;2023-01-25T08:58:14;100562.66;;;8.08;59.36
15604;BME280;7902;49.042;9.092;2023-01-25T09:00:42;100557.44;;;8.08;59.31
15604;BME280;7902;49.042;9.092;2023-01-25T09:03:09;100555.22;;;8.19;59.08
15604;BME280;7902;49.042;9.092;2023-01-25T09:05:36;100550.00;;;8.19;58.86
15604;BME280;7902;49.042;9.092;2023-01-25T09:08:04;100560.44;;;8.19;58.72
15604;BME280;7902;49.042;9.092;2023-01-25T09:10:30;100554.41;;;8.19;59.08
15604;BME280;7902;49.042;9.092;2023-01-25T09:12:57;100556.25;;;8.15;58.87
15604;BME280;7902;49.042;9.092;2023-01-25T09:15:23;100551.69;;;8.20;59.26
15604;BME280;7902;49.042;9.092;2023-01-25T09:17:53;100553.34;;;8.23;58.77
15604;BME280;7902;49.042;9.092;2023-01-25T09:20:19;100548.84;;;8.26;58.64
15604;BME280;7902;49.042;9.092;2023-01-25T09:22:45;100551.47;;;8.26;58.81
15604;BME280;7902;49.042;9.092;2023-01-25T09:25:12;100539.66;;;8.16;58.65
15604;BME280;7902;49.042;9.092;2023-01-25T09:27:38;100546.59;;;8.17;58.47
15604;BME280;7902;49.042;9.092;2023-01-25T09:30:06;100550.00;;;8.19;58.79
15604;BME280;7902;49.042;9.092;2023-01-25T09:32:33;100540.81;;;8.09;58.75
15604;BME280;7902;49.042;9.092;2023-01-25T09:34:59;100545.56;;;8.21;58.79
15604;BME280;7902;49.042;9.092;2023-01-25T09:37:24;100550.78;;;8.21;58.99
15604;BME280;7902;49.042;9.092;2023-01-25T09:39:50;100550.00;;;8.19;58.69
15604;BME280;7902;49.042;9.092;2023-01-25T09:48:10;100538.63;;;8.20;58.80
15604;BME280;7902;49.042;9.092;2023-01-25T09:50:52;100545.59;;;8.20;58.53
15604;BME280;7902;49.042;9.092;2023-01-25T09:53:35;100542.03;;;8.22;58.47
15604;BME280;7902;49.042;9.092;2023-01-25T09:56:17;100542.09;;;8.21;58.84
15604;BME280;7902;49.042;9.092;2023-01-25T09:58:49;100539.38;;;8.24;58.49
15604;BME280;7902;49.042;9.092;2023-01-25T10:01:36;100538.75;;;8.17;58.42
15604;BME280;7902;49.042;9.092;2023-01-25T10:04:12;100539.19;;;8.28;58.51
15604;BME280;7902;49.042;9.092;2023-01-25T10:06:42;100527.09;;;8.24;58.48
15604;BME280;7902;49.042;9.092;2023-01-25T10:09:36;100525.28;;;8.26;58.37
15604;BME280;7902;49.042;9.092;2023-01-25T10:12:19;100523.53;;;8.27;58.30
15604;BME280;7902;49.042;9.092;2023-01-25T10:14:47;100520.19;;;8.23;58.35
15604;BME280;7902;49.042;9.092;2023-01-25T10:17:22;100521.78;;;8.27;58.07
15604;BME280;7902;49.042;9.092;2023-01-25T10:20:21;100521.28;;;8.18;58.58
15604;BME280;7902;49.042;9.092;2023-01-25T10:26:45;100519.44;;;8.20;58.86
15604;BME280;7902;49.042;9.092;2023-01-25T10:31:18;100514.34;;;8.17;58.39
15604;BME280;7902;49.042;9.092;2023-01-25T10:33:46;100519.53;;;8.18;58.29
15604;BME280;7902;49.042;9.092;2023-01-25T10:36:31;100506.16;;;8.24;58.32
15604;BME280;7902;49.042;9.092;2023-01-25T10:38:57;100507.22;;;8.20;58.26
15604;BME280;7902;49.042;9.092;2023-01-25T10:44:00;100508.94;;;8.21;58.41
15604;BME280;7902;49.042;9.092;2023-01-25T10:47:12;100503.94;;;8.15;58.13
15604;BME280;7902;49.042;9.092;2023-01-25T10:52:17;100507.13;;;8.23;58.12
15604;BME280;7902;49.042;9.092;2023-01-25T10:54:44;100503.34;;;8.30;58.26
15604;BME280;7902;49.042;9.092;2023-01-25T10:57:17;100496.47;;;8.28;58.26
15604;BME280;7902;49.042;9.092;2023-01-25T10:59:49;100498.47;;;8.21;58.20
15604;BME280;7902;49.042;9.092;2023-01-25T11:02:38;100490.38;;;8.27;57.77
15604;BME280;7902;49.042;9.092;2023-01-25T11:07:43;100483.22;;;8.32;57.98
15604;BME280;7902;49.042;9.092;2023-01-25T11:10:27;100478.09;;;8.29;58.02
15604;BME280;7902;49.042;9.092;2023-01-25T11:18:23;100474.91;;;8.21;58.35
15604;BME280;7902;49.042;9.092;2023-01-25T11:21:16;100469.31;;;8.30;57.76
15604;BME280;7902;49.042;9.092;2023-01-25T11:24:03;100460.13;;;8.20;58.30
15604;BME280;7902;49.042;9.092;2023-01-25T11:26:39;100461.78;;;8.23;58.13
15604;BME280;7902;49.042;9.092;2023-01-25T11:29:19;100466.91;;;8.24;57.97
15604;BME280;7902;49.042;9.092;2023-01-25T11:31:51;100462.50;;;8.26;57.88
15604;BME280;7902;49.042;9.092;2023-01-25T11:34:25;100443.31;;;8.26;57.81
15604;BME280;7902;49.042;9.092;2023-01-25T11:37:19;100449.97;;;8.13;58.23
15604;BME280;7902;49.042;9.092;2023-01-25T11:42:42;100434.22;;;8.14;58.29
15604;BME280;7902;49.042;9.092;2023-01-25T11:51:07;100419.72;;;8.27;57.60
15604;BME280;7902;49.042;9.092;2023-01-25T11:56:20;100401.38;;;8.27;57.38
15604;BME280;7902;49.042;9.092;2023-01-25T12:07:09;100387.66;;;8.22;57.66
15604;BME280;7902;49.042;9.092;2023-01-25T12:23:06;100346.03;;;8.16;57.66
15604;BME280;7902;49.042;9.092;2023-01-25T12:25:54;100343.47;;;8.15;57.78
15604;BME280;7902;49.042;9.092;2023-01-25T12:28:38;100332.03;;;8.17;57.53
15604;BME280;7902;49.042;9.092;2023-01-25T12:31:42;100329.56;;;8.14;57.55
15604;BME280;7902;49.042;9.092;2023-01-25T12:34:47;100317.41;;;8.13;57.65
15604;BME280;7902;49.042;9.092;2023-01-25T12:37:21;100313.78;;;8.16;57.57
15604;BME280;7902;49.042;9.092;2023-01-25T12:39:55;100310.25;;;8.17;57.76
15604;BME280;7902;49.042;9.092;2023-01-25T12:42:31;100308.75;;;8.11;57.79
15604;BME280;7902;49.042;9.092;2023-01-25T12:47:42;100290.19;;;8.17;57.87
15604;BME280;7902;49.042;9.092;2023-01-25T12:50:27;100288.28;;;8.21;57.56
15604;BME280;7902;49.042;9.092;2023-01-25T12:53:14;100289.38;;;8.15;57.33
15604;BME280;7902;49.042;9.092;2023-01-25T12:55:43;100277.88;;;8.19;57.64
15604;BME280;7902;49.042;9.092;2023-01-25T13:12:10;100255.53;;;7.92;56.81
15604;BME280;7902;49.042;9.092;2023-01-25T13:14:38;100251.28;;;8.10;57.55
15604;BME280;7902;49.042;9.092;2023-01-25T13:17:31;100252.72;;;7.97;58.15
15604;BME280;7902;49.042;9.092;2023-01-25T13:19:58;100248.59;;;7.91;58.02
15604;BME280;7902;49.042;9.092;2023-01-25T13:27:41;100238.69;;;7.99;57.78
15604;BME280;7902;49.042;9.092;2023-01-25T13:30:29;100231.88;;;7.95;58.17
15604;BME280;7902;49.042;9.092;2023-01-25T13:32:58;100232.91;;;7.91;58.50
15604;BME280;7902;49.042;9.092;2023-01-25T13:38:02;100243.44;;;8.10;57.93
15604;BME280;7902;49.042;9.092;2023-01-25T13:40:36;100230.06;;;8.16;57.81
15604;BME280;7902;49.042;9.092;2023-01-25T13:45:39;100221.47;;;8.14;57.72
15604;BME280;7902;49.042;9.092;2023-01-25T13:48:15;100225.31;;;8.05;57.75
15604;BME280;7902;49.042;9.092;2023-01-25T13:50:52;100214.38;;;8.16;57.64
15604;BME280;7902;49.042;9.092;2023-01-25T13:53:22;100207.38;;;8.16;57.37
15604;BME280;7902;49.042;9.092;2023-01-25T13:55:52;100212.97;;;8.27;57.36
15604;BME280;7902;49.042;9.092;2023-01-25T13:58:22;100209.19;;;8.34;56.86
15604;BME280;7902;49.042;9.092;2023-01-25T14:00:56;100219.88;;;8.30;57.05
15604;BME280;7902;49.042;9.092;2023-01-25T14:03:33;100216.69;;;8.03;57.54
15604;BME280;7902;49.042;9.092;2023-01-25T14:06:00;100209.50;;;7.88;57.89
15604;BME280;7902;49.042;9.092;2023-01-25T14:08:30;100203.88;;;7.97;58.11
15604;BME280;7902;49.042;9.092;2023-01-25T14:10:57;100213.22;;;8.03;57.96
15604;BME280;7902;49.042;9.092;2023-01-25T14:13:23;100210.25;;;8.10;57.77
15604;BME280;7902;49.042;9.092;2023-01-25T14:15:58;100203.06;;;8.15;57.85
15604;BME280;7902;49.042;9.092;2023-01-25T14:18:30;100205.94;;;7.90;57.78
15604;BME280;7902;49.042;9.092;2023-01-25T14:23:34;100206.22;;;8.03;57.79
15604;BME280;7902;49.042;9.092;2023-01-25T14:26:00;100209.19;;;7.96;57.80
15604;BME280;7902;49.042;9.092;2023-01-25T14:28:28;100203.31;;;7.90;58.14
15604;BME280;7902;49.042;9.092;2023-01-25T14:30:58;100199.31;;;7.82;58.41
15604;BME280;7902;49.042;9.092;2023-01-25T14:33:32;100182.50;;;7.87;57.97
15604;BME280;7902;49.042;9.092;2023-01-25T14:36:12;100189.47;;;8.07;58.10
15604;BME280;7902;49.042;9.092;2023-01-25T14:38:41;100178.41;;;7.82;58.14
15604;BME280;7902;49.042;9.092;2023-01-25T14:43:38;100171.09;;;7.90;58.00
15604;BME280;7902;49.042;9.092;2023-01-25T14:46:22;100179.16;;;8.04;58.10
15604;BME280;7902;49.042;9.092;2023-01-25T14:48:48;100169.38;;;7.89;58.42
15604;BME280;7902;49.042;9.092;2023-01-25T14:51:26;100165.53;;;7.77;58.69
15604;BME280;7902;49.042;9.092;2023-01-25T14:54:04;100165.31;;;7.82;58.19
15604;BME280;7902;49.042;9.092;2023-01-25T14:56:32;100167.22;;;7.78;58.59
15604;BME280;7902;49.042;9.092;2023-01-25T14:58:59;100159.59;;;7.74;58.52
15604;BME280;7902;49.042;9.092;2023-01-25T15:01:32;100164.63;;;7.78;58.16
15604;BME280;7902;49.042;9.092;2023-01-25T15:04:01;100152.44;;;7.77;58.26
15604;BME280;7902;49.042;9.092;2023-01-25T15:06:27;100159.66;;;7.72;58.17
15604;BME280;7902;49.042;9.092;2023-01-25T15:08:53;100156.44;;;7.86;58.19